Time;durP1;ratioP1;P1;durP2;ratioP2;P2;SDS_P1;SDS_P2;PMS_P1;PMS_P2;Temp;Humidity;BMP_temperature;BMP_pressure;BME280_temperature;BME280_humidity;BME280_pressure;Samples;Min_cycle;Max_cycle;Signal;HPM_P1;HPM_P2
2023/12/08 00:00:32;;;;;;;37.30;5.15;;;;;;;;;;5026746;28;20120;-43
2023/12/08 00:02:59;;;;;;;36.90;4.53;;;;;;;;;;5019309;28;20846;-43
2023/12/08 00:05:27;;;;;;;38.80;4.93;;;;;;;;;;5030868;28;20055;-44
2023/12/08 00:07:56;;;;;;;34.80;5.40;;;;;;;;;;5027372;28;20509;-43
2023/12/08 00:10:24;;;;;;;33.63;4.22;;;;;;;;;;5024656;28;20147;-43
2023/12/08 00:12:51;;;;;;;38.83;4.65;;;;;;;;;;5028395;28;20053;-43
2023/12/08 00:15:19;;;;;;;47.58;6.63;;;;;;;;;;5024911;28;20060;-45
2023/12/08 00:17:48;;;;;;;40.90;4.83;;;;;;;;;;5027472;28;20045;-43
2023/12/08 00:20:16;;;;;;;49.53;5.68;;;;;;;;;;5022895;28;20415;-43
2023/12/08 00:22:44;;;;;;;37.53;4.50;;;;;;;;;;5024425;28;20045;-44
2023/12/08 00:25:12;;;;;;;33.85;4.45;;;;;;;;;;5009624;28;20284;-44
2023/12/08 00:27:40;;;;;;;39.95;5.78;;;;;;;;;;5018290;28;20063;-43
2023/12/08 00:30:08;;;;;;;45.03;4.97;;;;;;;;;;5022102;28;20102;-44
2023/12/08 00:32:36;;;;;;;44.80;4.43;;;;;;;;;;5029931;28;20041;-43
2023/12/08 00:35:07;;;;;;;41.33;4.97;;;;;;;;;;5031853;28;20073;-43
2023/12/08 00:37:35;;;;;;;37.20;5.07;;;;;;;;;;5025672;28;20103;-43
2023/12/08 00:40:05;;;;;;;35.55;4.85;;;;;;;;;;5026313;28;20042;-44
2023/12/08 00:42:33;;;;;;;41.33;4.10;;;;;;;;;;5050400;28;20485;-43
2023/12/08 00:45:00;;;;;;;45.85;5.75;;;;;;;;;;5022350;28;20041;-43
2023/12/08 00:47:29;;;;;;;28.90;4.07;;;;;;;;;;5035499;28;20037;-43
2023/12/08 00:49:57;;;;;;;40.17;4.75;;;;;;;;;;5027552;28;20045;-43
2023/12/08 00:52:26;;;;;;;42.83;5.80;;;;;;;;;;5026610;28;20037;-43
2023/12/08 00:54:54;;;;;;;38.63;4.50;;;;;;;;;;5019140;28;20053;-43
2023/12/08 00:57:22;;;;;;;33.28;4.70;;;;;;;;;;5031583;28;20463;-43
2023/12/08 00:59:50;;;;;;;44.97;5.50;;;;;;;;;;5023288;28;20037;-43
2023/12/08 01:02:18;;;;;;;29.65;5.35;;;;;;;;;;5030994;28;20041;-43
2023/12/08 01:04:45;;;;;;;40.05;5.07;;;;;;;;;;5019487;28;20056;-43
2023/12/08 01:07:14;;;;;;;38.70;5.20;;;;;;;;;;5027470;28;20143;-45
2023/12/08 01:09:43;;;;;;;35.00;4.45;;;;;;;;;;5018464;28;21116;-43
2023/12/08 01:12:11;;;;;;;34.63;4.32;;;;;;;;;;5017655;28;20052;-43
2023/12/08 01:14:39;;;;;;;37.70;4.28;;;;;;;;;;5019349;28;20045;-43
2023/12/08 01:17:06;;;;;;;44.10;4.97;;;;;;;;;;5016950;28;20120;-43
2023/12/08 01:19:36;;;;;;;33.47;3.33;;;;;;;;;;5021850;28;20461;-43
2023/12/08 01:22:04;;;;;;;39.30;4.72;;;;;;;;;;5019616;28;20082;-44
2023/12/08 01:24:32;;;;;;;39.05;4.85;;;;;;;;;;5026454;28;20033;-43
2023/12/08 01:27:01;;;;;;;35.25;4.45;;;;;;;;;;5020589;28;20046;-43
2023/12/08 01:29:29;;;;;;;32.33;4.80;;;;;;;;;;5024279;28;20041;-43
2023/12/08 01:31:57;;;;;;;35.13;3.87;;;;;;;;;;5025371;28;20675;-43
2023/12/08 01:34:24;;;;;;;29.58;3.65;;;;;;;;;;5024397;28;20041;-43
2023/12/08 01:36:52;;;;;;;32.13;3.63;;;;;;;;;;5029165;28;20155;-43
2023/12/08 01:39:20;;;;;;;33.83;4.10;;;;;;;;;;5030172;28;20036;-43
2023/12/08 01:41:50;;;;;;;37.58;4.63;;;;;;;;;;5017505;28;20029;-43
2023/12/08 01:44:19;;;;;;;32.73;3.60;;;;;;;;;;5028489;28;20072;-43
2023/12/08 01:46:47;;;;;;;36.40;4.13;;;;;;;;;;5026600;28;20035;-43
2023/12/08 01:49:15;;;;;;;29.70;3.28;;;;;;;;;;5026392;28;20053;-43
2023/12/08 01:51:43;;;;;;;34.17;3.38;;;;;;;;;;5021867;28;20270;-43
2023/12/08 01:54:11;;;;;;;30.73;4.10;;;;;;;;;;5023222;28;20064;-47
2023/12/08 01:56:40;;;;;;;28.80;3.50;;;;;;;;;;5023012;28;20509;-43
2023/12/08 01:59:08;;;;;;;33.20;3.85;;;;;;;;;;5026577;28;20041;-43
2023/12/08 02:01:38;;;;;;;37.00;4.47;;;;;;;;;;5012310;28;20041;-43
2023/12/08 02:04:06;;;;;;;30.73;3.65;;;;;;;;;;5028018;28;20044;-43
2023/12/08 02:06:34;;;;;;;33.70;4.35;;;;;;;;;;5024621;28;20407;-43
2023/12/08 02:09:02;;;;;;;31.30;3.67;;;;;;;;;;5027077;28;20048;-43
2023/12/08 02:11:30;;;;;;;31.30;3.25;;;;;;;;;;5022972;28;20059;-43
2023/12/08 02:13:58;;;;;;;31.23;3.45;;;;;;;;;;5028955;28;20045;-43
2023/12/08 02:16:27;;;;;;;28.88;3.85;;;;;;;;;;5020609;28;20043;-43
2023/12/08 02:18:57;;;;;;;26.88;3.03;;;;;;;;;;5029456;28;20495;-43
2023/12/08 02:21:25;;;;;;;28.13;3.13;;;;;;;;;;5018922;28;20099;-43
2023/12/08 02:23:54;;;;;;;23.17;3.22;;;;;;;;;;5030557;28;20048;-44
2023/12/08 02:26:22;;;;;;;25.63;2.90;;;;;;;;;;5009318;28;20662;-43
2023/12/08 02:28:50;;;;;;;27.58;4.00;;;;;;;;;;5034237;28;20553;-43
2023/12/08 02:31:23;;;;;;;35.25;3.95;;;;;;;;;;5018533;28;20055;-43
2023/12/08 02:33:52;;;;;;;24.13;2.77;;;;;;;;;;5023444;28;20044;-45
2023/12/08 02:36:21;;;;;;;31.88;2.90;;;;;;;;;;5016901;28;20256;-43
2023/12/08 02:38:51;;;;;;;27.58;3.78;;;;;;;;;;5025740;28;20041;-44
2023/12/08 02:41:20;;;;;;;30.52;3.25;;;;;;;;;;5024571;28;20542;-43
2023/12/08 02:43:48;;;;;;;31.17;4.18;;;;;;;;;;5029310;28;20052;-44
2023/12/08 02:46:15;;;;;;;28.77;2.80;;;;;;;;;;5016518;28;20041;-42
2023/12/08 02:48:43;;;;;;;28.98;3.80;;;;;;;;;;5032657;28;20531;-43
2023/12/08 02:51:20;;;;;;;26.55;3.30;;;;;;;;;;5016119;28;20547;-43
2023/12/08 02:53:48;;;;;;;30.73;3.75;;;;;;;;;;5031158;28;20052;-43
2023/12/08 02:56:16;;;;;;;30.23;3.90;;;;;;;;;;5022318;28;20099;-43
2023/12/08 02:58:45;;;;;;;23.60;3.00;;;;;;;;;;5031224;28;20045;-43
2023/12/08 03:01:14;;;;;;;33.28;3.00;;;;;;;;;;5022448;28;20053;-42
2023/12/08 03:03:42;;;;;;;27.20;3.08;;;;;;;;;;5016860;28;20045;-43
2023/12/08 03:06:10;;;;;;;27.30;3.47;;;;;;;;;;5025787;28;20037;-45
2023/12/08 03:08:38;;;;;;;22.42;2.95;;;;;;;;;;5025030;28;20065;-44
2023/12/08 03:11:05;;;;;;;24.17;3.40;;;;;;;;;;5031040;28;20063;-43
2023/12/08 03:13:33;;;;;;;26.45;3.38;;;;;;;;;;5018178;28;20175;-43
2023/12/08 03:16:02;;;;;;;25.45;3.03;;;;;;;;;;5032998;28;20037;-43
2023/12/08 03:18:30;;;;;;;26.80;3.28;;;;;;;;;;5015755;28;20037;-43
2023/12/08 03:20:57;;;;;;;27.80;3.13;;;;;;;;;;5026138;28;20057;-43
2023/12/08 03:23:25;;;;;;;31.87;3.23;;;;;;;;;;5020027;28;20525;-43
2023/12/08 03:25:53;;;;;;;22.95;2.20;;;;;;;;;;5014127;28;20128;-43
2023/12/08 03:28:21;;;;;;;23.85;3.25;;;;;;;;;;5025873;28;20064;-43
2023/12/08 03:30:48;;;;;;;24.65;2.90;;;;;;;;;;5027331;28;20043;-42
2023/12/08 03:33:17;;;;;;;25.02;2.65;;;;;;;;;;5017062;28;20426;-43
2023/12/08 03:35:45;;;;;;;27.77;2.47;;;;;;;;;;5022633;28;20045;-43
2023/12/08 03:38:13;;;;;;;21.73;2.90;;;;;;;;;;5027518;28;20082;-43
2023/12/08 03:40:41;;;;;;;34.53;3.30;;;;;;;;;;5027796;28;20579;-43
2023/12/08 03:43:09;;;;;;;25.48;2.63;;;;;;;;;;5024643;28;20041;-43
2023/12/08 03:45:36;;;;;;;20.70;2.00;;;;;;;;;;5025920;28;20411;-42
2023/12/08 03:48:04;;;;;;;26.70;2.50;;;;;;;;;;5027968;28;20041;-43
2023/12/08 03:50:34;;;;;;;33.97;3.58;;;;;;;;;;5020479;28;20053;-43
2023/12/08 03:53:01;;;;;;;27.00;2.58;;;;;;;;;;5023791;28;20037;-43
2023/12/08 03:55:29;;;;;;;22.48;2.85;;;;;;;;;;5023818;28;21268;-43
2023/12/08 03:57:57;;;;;;;26.27;3.35;;;;;;;;;;5012095;28;20198;-43
2023/12/08 04:00:26;;;;;;;33.70;3.63;;;;;;;;;;5025722;28;20041;-44
2023/12/08 04:02:53;;;;;;;29.30;3.33;;;;;;;;;;5024164;28;21553;-43
2023/12/08 04:05:21;;;;;;;24.30;2.33;;;;;;;;;;5025348;28;20060;-44
2023/12/08 04:07:50;;;;;;;25.20;2.30;;;;;;;;;;5023101;28;20084;-46
2023/12/08 04:10:18;;;;;;;27.63;3.05;;;;;;;;;;5026688;28;20171;-43
2023/12/08 04:12:47;;;;;;;20.67;2.13;;;;;;;;;;5025706;28;20033;-43
2023/12/08 04:15:15;;;;;;;21.25;2.10;;;;;;;;;;5031760;28;20048;-42
2023/12/08 04:17:42;;;;;;;28.52;2.63;;;;;;;;;;5017657;28;20499;-43
2023/12/08 04:20:11;;;;;;;19.38;2.10;;;;;;;;;;5031178;28;20045;-42
2023/12/08 04:22:39;;;;;;;26.77;1.92;;;;;;;;;;5029616;28;20041;-43
2023/12/08 04:25:09;;;;;;;18.63;2.40;;;;;;;;;;5029498;28;20063;-43
2023/12/08 04:27:36;;;;;;;22.52;3.45;;;;;;;;;;5045322;28;20037;-44
2023/12/08 04:30:04;;;;;;;19.60;2.65;;;;;;;;;;5032026;28;20190;-44
2023/12/08 04:32:32;;;;;;;22.20;2.78;;;;;;;;;;5052441;28;20768;-43
2023/12/08 04:35:00;;;;;;;24.17;2.33;;;;;;;;;;5035428;28;20044;-43
2023/12/08 04:37:28;;;;;;;25.83;2.83;;;;;;;;;;5027327;28;20047;-43
2023/12/08 04:39:55;;;;;;;17.85;2.85;;;;;;;;;;5029957;28;20064;-43
2023/12/08 04:42:24;;;;;;;31.70;3.00;;;;;;;;;;5029579;28;20052;-43
2023/12/08 04:44:52;;;;;;;20.77;2.03;;;;;;;;;;5038019;28;20049;-43
2023/12/08 04:47:20;;;;;;;22.83;2.67;;;;;;;;;;5026779;28;20757;-44
2023/12/08 04:49:48;;;;;;;26.00;2.80;;;;;;;;;;5031449;28;20037;-43
2023/12/08 04:52:16;;;;;;;20.60;2.58;;;;;;;;;;5023898;28;20076;-43
2023/12/08 04:54:43;;;;;;;21.25;3.28;;;;;;;;;;5022148;28;20057;-44
2023/12/08 04:57:11;;;;;;;20.15;2.33;;;;;;;;;;5021334;28;20052;-42
2023/12/08 04:59:40;;;;;;;20.08;1.98;;;;;;;;;;5034091;28;20080;-44
2023/12/08 05:02:08;;;;;;;23.87;2.30;;;;;;;;;;5028325;28;20119;-43
2023/12/08 05:04:36;;;;;;;17.65;1.98;;;;;;;;;;5033218;28;20044;-43
2023/12/08 05:07:04;;;;;;;22.83;2.30;;;;;;;;;;5021695;28;20034;-43
2023/12/08 05:09:32;;;;;;;25.95;2.60;;;;;;;;;;5030926;28;20049;-43
2023/12/08 05:11:59;;;;;;;27.23;2.75;;;;;;;;;;5027868;28;20037;-44
2023/12/08 05:14:28;;;;;;;23.90;1.93;;;;;;;;;;5026018;28;20445;-43
2023/12/08 05:16:57;;;;;;;24.65;3.40;;;;;;;;;;5025149;28;20427;-43
2023/12/08 05:19:24;;;;;;;15.95;1.65;;;;;;;;;;5028662;28;20037;-44
2023/12/08 05:21:52;;;;;;;22.33;3.38;;;;;;;;;;5048483;28;21124;-43
2023/12/08 05:24:20;;;;;;;20.73;2.72;;;;;;;;;;5027975;28;20041;-43
2023/12/08 05:26:48;;;;;;;19.47;2.10;;;;;;;;;;5050757;28;20041;-42
2023/12/08 05:29:16;;;;;;;20.33;2.25;;;;;;;;;;5033086;28;20483;-42
2023/12/08 05:31:43;;;;;;;21.80;2.25;;;;;;;;;;5025652;28;20037;-43
2023/12/08 05:34:12;;;;;;;19.08;3.78;;;;;;;;;;5029227;28;20043;-44
2023/12/08 05:36:40;;;;;;;23.05;2.40;;;;;;;;;;5027929;28;20136;-43
2023/12/08 05:39:09;;;;;;;25.63;3.17;;;;;;;;;;5024980;28;20041;-44
2023/12/08 05:41:37;;;;;;;27.50;2.80;;;;;;;;;;5036138;28;20041;-43
2023/12/08 05:44:06;;;;;;;16.77;2.30;;;;;;;;;;5031652;28;20044;-43
2023/12/08 05:46:34;;;;;;;21.27;3.38;;;;;;;;;;5030284;28;20241;-44
2023/12/08 05:49:02;;;;;;;20.23;2.53;;;;;;;;;;5014266;28;20048;-45
2023/12/08 05:51:31;;;;;;;18.80;1.97;;;;;;;;;;5026490;28;20140;-43
2023/12/08 05:53:59;;;;;;;27.10;3.15;;;;;;;;;;5006959;28;20049;-43
2023/12/08 05:56:27;;;;;;;23.80;2.85;;;;;;;;;;5022879;28;20558;-42
2023/12/08 05:58:54;;;;;;;26.08;2.65;;;;;;;;;;5015274;28;20126;-43
2023/12/08 06:01:22;;;;;;;21.48;2.28;;;;;;;;;;5018453;28;20480;-44
2023/12/08 06:03:51;;;;;;;18.87;2.13;;;;;;;;;;5020390;28;20041;-45
2023/12/08 06:06:19;;;;;;;29.90;2.55;;;;;;;;;;5020956;28;20045;-43
2023/12/08 06:08:48;;;;;;;15.18;1.35;;;;;;;;;;5015707;28;20060;-44
2023/12/08 06:11:16;;;;;;;17.35;2.35;;;;;;;;;;5021740;28;20313;-43
2023/12/08 06:13:44;;;;;;;31.92;2.88;;;;;;;;;;5022333;28;20045;-43
2023/12/08 06:16:11;;;;;;;22.97;1.97;;;;;;;;;;5016760;28;20511;-47
2023/12/08 06:18:39;;;;;;;19.17;2.63;;;;;;;;;;5020266;28;20048;-44
2023/12/08 06:21:08;;;;;;;24.92;2.58;;;;;;;;;;5020637;28;20683;-43
2023/12/08 06:23:36;;;;;;;35.67;3.08;;;;;;;;;;5020773;28;20221;-43
2023/12/08 06:26:05;;;;;;;20.08;2.22;;;;;;;;;;5015168;28;20084;-44
2023/12/08 06:28:50;;;;;;;26.17;2.67;;;;;;;;;;5019597;28;20040;-45
2023/12/08 06:31:18;;;;;;;24.25;2.17;;;;;;;;;;5014799;28;20187;-43
2023/12/08 06:33:46;;;;;;;19.33;2.47;;;;;;;;;;5014676;28;20094;-43
2023/12/08 06:36:31;;;;;;;24.83;3.45;;;;;;;;;;5015226;28;20033;-47
2023/12/08 06:39:00;;;;;;;27.20;2.38;;;;;;;;;;5023832;28;20049;-43
2023/12/08 06:41:29;;;;;;;25.33;2.47;;;;;;;;;;5018436;28;20033;-43
2023/12/08 06:43:57;;;;;;;23.60;2.20;;;;;;;;;;5027665;28;20041;-45
2023/12/08 06:46:25;;;;;;;23.40;2.20;;;;;;;;;;5020726;28;20048;-43
2023/12/08 06:48:52;;;;;;;27.65;2.65;;;;;;;;;;5023536;28;20045;-43
2023/12/08 06:51:20;;;;;;;21.08;2.55;;;;;;;;;;5024615;28;20045;-43
2023/12/08 06:53:48;;;;;;;22.00;1.80;;;;;;;;;;5022201;28;20056;-43
2023/12/08 06:56:18;;;;;;;16.92;2.55;;;;;;;;;;5020377;28;20045;-44
2023/12/08 06:58:47;;;;;;;29.80;2.85;;;;;;;;;;5020223;28;20041;-42
2023/12/08 07:01:15;;;;;;;34.65;2.50;;;;;;;;;;5002728;28;20052;-43
2023/12/08 07:03:42;;;;;;;20.20;2.20;;;;;;;;;;5022148;28;20037;-43
2023/12/08 07:06:10;;;;;;;24.43;2.77;;;;;;;;;;5014704;28;20049;-42
2023/12/08 07:08:38;;;;;;;22.60;2.45;;;;;;;;;;5019534;28;21323;-43
2023/12/08 07:11:06;;;;;;;20.58;2.38;;;;;;;;;;5023580;28;20049;-45
2023/12/08 07:13:33;;;;;;;24.40;2.80;;;;;;;;;;5023157;28;20033;-43
2023/12/08 07:16:03;;;;;;;18.27;2.65;;;;;;;;;;5026597;28;20048;-43
2023/12/08 07:18:30;;;;;;;23.87;2.40;;;;;;;;;;5025157;28;20056;-45
2023/12/08 07:20:59;;;;;;;25.27;2.03;;;;;;;;;;5026020;28;20064;-43
2023/12/08 07:23:27;;;;;;;24.80;2.40;;;;;;;;;;5015286;28;20037;-43
2023/12/08 07:25:54;;;;;;;23.48;1.95;;;;;;;;;;5016699;28;20057;-43
2023/12/08 07:28:22;;;;;;;20.67;2.30;;;;;;;;;;5022418;28;20033;-43
2023/12/08 07:30:50;;;;;;;24.03;3.63;;;;;;;;;;5023377;28;20041;-43
2023/12/08 07:33:20;;;;;;;22.67;2.47;;;;;;;;;;5027095;28;20041;-43
2023/12/08 07:35:48;;;;;;;24.95;3.45;;;;;;;;;;5017312;28;20051;-43
2023/12/08 07:38:16;;;;;;;18.42;2.90;;;;;;;;;;5023199;28;20037;-45
2023/12/08 07:40:45;;;;;;;21.17;2.88;;;;;;;;;;5051925;28;20037;-43
2023/12/08 07:43:13;;;;;;;26.57;3.13;;;;;;;;;;5019361;28;20139;-43
2023/12/08 07:45:40;;;;;;;24.15;3.42;;;;;;;;;;5023427;28;20053;-45
2023/12/08 07:48:09;;;;;;;26.00;2.85;;;;;;;;;;5017802;28;20051;-43
2023/12/08 07:50:38;;;;;;;20.70;2.45;;;;;;;;;;5013434;28;20037;-43
2023/12/08 07:53:06;;;;;;;21.70;2.45;;;;;;;;;;5026278;28;20060;-43
2023/12/08 07:55:34;;;;;;;24.37;3.47;;;;;;;;;;5026091;28;20102;-43
2023/12/08 07:58:01;;;;;;;17.48;2.00;;;;;;;;;;5020836;28;20041;-43
2023/12/08 08:00:29;;;;;;;20.23;2.20;;;;;;;;;;5022583;28;20858;-43
2023/12/08 08:02:57;;;;;;;19.08;1.85;;;;;;;;;;5021723;28;20052;-43
2023/12/08 08:05:25;;;;;;;19.58;2.38;;;;;;;;;;5016680;28;20373;-43
2023/12/08 08:07:54;;;;;;;21.77;1.93;;;;;;;;;;5022422;28;20578;-45
2023/12/08 08:10:22;;;;;;;22.80;2.45;;;;;;;;;;5046547;28;20049;-43
2023/12/08 08:12:49;;;;;;;26.30;2.42;;;;;;;;;;5026599;28;20040;-45
2023/12/08 08:15:17;;;;;;;20.67;2.03;;;;;;;;;;5027427;28;20041;-45
2023/12/08 08:17:45;;;;;;;25.98;2.40;;;;;;;;;;5019997;28;20502;-44
2023/12/08 08:20:13;;;;;;;24.83;2.47;;;;;;;;;;5029217;28;20052;-43
2023/12/08 08:22:41;;;;;;;21.33;2.42;;;;;;;;;;5018225;28;21157;-45
2023/12/08 08:25:10;;;;;;;24.77;3.10;;;;;;;;;;5025548;28;20045;-42
2023/12/08 08:27:38;;;;;;;18.20;2.28;;;;;;;;;;5026067;28;20053;-43
2023/12/08 08:30:06;;;;;;;20.73;2.30;;;;;;;;;;5030189;28;20037;-43
2023/12/08 08:32:34;;;;;;;23.30;2.43;;;;;;;;;;5028668;28;20029;-45
2023/12/08 08:35:02;;;;;;;17.63;2.00;;;;;;;;;;5024741;28;20483;-43
2023/12/08 08:37:30;;;;;;;16.70;1.90;;;;;;;;;;5026122;28;20048;-45
2023/12/08 08:39:58;;;;;;;16.35;1.73;;;;;;;;;;5027021;28;20500;-46
2023/12/08 08:42:28;;;;;;;21.95;2.63;;;;;;;;;;5023187;28;20042;-44
2023/12/08 08:44:57;;;;;;;24.93;2.37;;;;;;;;;;5029100;28;20064;-46
2023/12/08 08:47:24;;;;;;;23.10;1.80;;;;;;;;;;5013390;28;20045;-45
2023/12/08 08:49:52;;;;;;;26.27;2.38;;;;;;;;;;5026947;28;21030;-43
2023/12/08 08:52:21;;;;;;;15.68;2.28;;;;;;;;;;5025465;28;20059;-45
2023/12/08 08:54:48;;;;;;;31.42;2.45;;;;;;;;;;5019968;28;20048;-44
2023/12/08 08:57:17;;;;;;;16.43;2.03;;;;;;;;;;5024073;28;20048;-44
2023/12/08 08:59:46;;;;;;;26.35;3.63;;;;;;;;;;5023198;28;20132;-43
2023/12/08 09:02:14;;;;;;;23.98;4.28;;;;;;;;;;5027685;28;20041;-42
2023/12/08 09:04:42;;;;;;;22.02;3.55;;;;;;;;;;5016022;28;20124;-44
2023/12/08 09:07:10;;;;;;;15.90;2.20;;;;;;;;;;5028201;28;20052;-43
2023/12/08 09:09:38;;;;;;;24.27;2.50;;;;;;;;;;5018131;28;20080;-43
2023/12/08 09:12:11;;;;;;;22.80;2.03;;;;;;;;;;5023144;28;20124;-43
2023/12/08 09:14:39;;;;;;;21.35;2.28;;;;;;;;;;4998372;28;20052;-45
2023/12/08 09:17:08;;;;;;;24.17;3.20;;;;;;;;;;5017335;28;20525;-44
2023/12/08 09:19:37;;;;;;;26.17;2.70;;;;;;;;;;4994025;28;20741;-43
2023/12/08 09:22:06;;;;;;;27.33;2.80;;;;;;;;;;4951060;28;20510;-44
2023/12/08 09:24:35;;;;;;;21.77;2.80;;;;;;;;;;4948855;28;20515;-43
2023/12/08 09:27:03;;;;;;;26.50;3.70;;;;;;;;;;4967486;28;20122;-43
2023/12/08 09:29:31;;;;;;;18.63;2.70;;;;;;;;;;4973579;28;20063;-45
2023/12/08 09:31:59;;;;;;;28.52;2.35;;;;;;;;;;4968695;28;20051;-44
2023/12/08 09:34:28;;;;;;;22.73;2.43;;;;;;;;;;4984739;28;20052;-43
2023/12/08 09:36:57;;;;;;;19.70;1.77;;;;;;;;;;4648125;28;9999836;-43
2023/12/08 09:39:45;;;;;;;26.45;3.03;;;;;;;;;;5010863;28;20577;-43
2023/12/08 09:42:16;;;;;;;19.80;2.90;;;;;;;;;;5012781;28;20037;-43
2023/12/08 09:44:44;;;;;;;30.17;2.47;;;;;;;;;;5016106;28;20052;-44
2023/12/08 09:47:13;;;;;;;30.27;2.92;;;;;;;;;;5012345;28;20593;-45
2023/12/08 09:49:46;;;;;;;17.48;2.83;;;;;;;;;;5012164;28;20400;-43
2023/12/08 09:52:14;;;;;;;25.23;2.92;;;;;;;;;;5012859;28;20797;-43
2023/12/08 09:54:43;;;;;;;21.07;2.20;;;;;;;;;;5015637;28;20330;-43
2023/12/08 09:57:10;;;;;;;25.58;2.47;;;;;;;;;;5017279;28;20045;-43
2023/12/08 09:59:39;;;;;;;18.13;2.72;;;;;;;;;;5012631;28;20645;-43
2023/12/08 10:02:08;;;;;;;24.23;2.60;;;;;;;;;;5013525;28;20044;-44
2023/12/08 10:04:36;;;;;;;17.40;2.03;;;;;;;;;;5010320;28;20051;-43
2023/12/08 10:07:09;;;;;;;27.93;3.00;;;;;;;;;;5016236;28;20045;-43
2023/12/08 10:09:37;;;;;;;23.50;3.05;;;;;;;;;;5007564;28;20053;-43
2023/12/08 10:12:05;;;;;;;21.30;2.70;;;;;;;;;;5043337;28;20085;-43
2023/12/08 10:14:33;;;;;;;23.07;3.77;;;;;;;;;;4663000;28;10000165;-44
2023/12/08 10:17:02;;;;;;;20.70;2.85;;;;;;;;;;5001679;28;20045;-43
2023/12/08 10:19:30;;;;;;;20.35;2.25;;;;;;;;;;5025152;28;20793;-45
2023/12/08 10:22:01;;;;;;;23.52;3.00;;;;;;;;;;5017045;28;20123;-44
2023/12/08 10:24:31;;;;;;;16.77;2.10;;;;;;;;;;5017640;28;20450;-43
2023/12/08 10:26:59;;;;;;;19.52;2.45;;;;;;;;;;5011864;28;20525;-43
2023/12/08 10:29:30;;;;;;;13.48;1.08;;;;;;;;;;5017526;28;20609;-46
2023/12/08 10:31:57;;;;;;;20.70;2.50;;;;;;;;;;5026002;28;20044;-45
2023/12/08 10:34:25;;;;;;;23.45;2.70;;;;;;;;;;5049931;28;20037;-44
2023/12/08 10:36:53;;;;;;;20.03;1.77;;;;;;;;;;5025769;28;20311;-44
2023/12/08 10:39:22;;;;;;;19.60;2.33;;;;;;;;;;5003935;28;20041;-43
2023/12/08 10:41:52;;;;;;;22.42;3.08;;;;;;;;;;4997345;28;20114;-44
2023/12/08 10:44:21;;;;;;;15.15;2.00;;;;;;;;;;5002053;28;20032;-44
2023/12/08 10:46:52;;;;;;;22.05;2.17;;;;;;;;;;4984935;28;20295;-44
2023/12/08 10:49:20;;;;;;;21.47;2.70;;;;;;;;;;5024670;28;20044;-43
2023/12/08 10:51:49;;;;;;;23.75;2.65;;;;;;;;;;5017364;28;20765;-43
2023/12/08 10:54:17;;;;;;;25.95;2.70;;;;;;;;;;5023145;28;20060;-46
2023/12/08 10:56:45;;;;;;;22.92;2.17;;;;;;;;;;5020777;28;20103;-44
2023/12/08 10:59:18;;;;;;;17.10;2.53;;;;;;;;;;5030784;28;20374;-44
2023/12/08 11:01:46;;;;;;;24.90;3.03;;;;;;;;;;5022375;28;20048;-43
2023/12/08 11:04:18;;;;;;;18.83;2.13;;;;;;;;;;5019156;28;20060;-43
2023/12/08 11:06:49;;;;;;;13.60;2.05;;;;;;;;;;5010647;28;20582;-43
2023/12/08 11:09:20;;;;;;;19.35;2.33;;;;;;;;;;5012609;28;20041;-43
2023/12/08 11:11:50;;;;;;;19.15;2.38;;;;;;;;;;5012080;28;20048;-43
2023/12/08 11:14:26;;;;;;;21.10;3.23;;;;;;;;;;5012045;28;20045;-45
2023/12/08 11:16:57;;;;;;;23.30;2.55;;;;;;;;;;5016817;28;20048;-45
2023/12/08 11:19:25;;;;;;;17.88;2.28;;;;;;;;;;5021159;28;20033;-44
2023/12/08 11:21:55;;;;;;;18.40;2.08;;;;;;;;;;5014695;28;20048;-43
2023/12/08 11:24:23;;;;;;;25.30;2.78;;;;;;;;;;5018417;28;20619;-43
2023/12/08 11:26:52;;;;;;;16.00;2.10;;;;;;;;;;5000241;28;20040;-43
2023/12/08 11:29:25;;;;;;;18.75;2.50;;;;;;;;;;5022900;28;20065;-43
2023/12/08 11:31:58;;;;;;;13.63;2.35;;;;;;;;;;5011376;28;20551;-46
2023/12/08 11:34:32;;;;;;;20.50;2.30;;;;;;;;;;5025367;28;20772;-43
2023/12/08 11:37:01;;;;;;;26.00;2.47;;;;;;;;;;5024145;28;20488;-43
2023/12/08 11:39:43;;;;;;;14.77;1.93;;;;;;;;;;5021741;28;20119;-45
2023/12/08 11:42:11;;;;;;;18.75;1.95;;;;;;;;;;5023690;28;20069;-45
2023/12/08 11:44:43;;;;;;;19.05;2.53;;;;;;;;;;5022239;28;20087;-43
2023/12/08 11:47:11;;;;;;;13.23;2.05;;;;;;;;;;5014776;28;20037;-43
2023/12/08 11:49:40;;;;;;;21.25;1.98;;;;;;;;;;5021527;28;20037;-43
2023/12/08 11:52:10;;;;;;;32.03;2.83;;;;;;;;;;5010891;28;20051;-43
2023/12/08 11:54:58;;;;;;;18.02;2.13;;;;;;;;;;5007829;28;20424;-43
2023/12/08 11:57:39;;;;;;;23.90;1.98;;;;;;;;;;5007341;28;20060;-45
2023/12/08 12:00:10;;;;;;;16.60;2.20;;;;;;;;;;5026939;28;20052;-44
2023/12/08 12:02:40;;;;;;;17.73;1.88;;;;;;;;;;5015336;28;20087;-46
2023/12/08 12:05:09;;;;;;;28.70;2.57;;;;;;;;;;5020066;28;20091;-44
2023/12/08 12:07:37;;;;;;;12.85;1.75;;;;;;;;;;5014659;28;20096;-44
2023/12/08 12:10:08;;;;;;;20.45;2.22;;;;;;;;;;5032788;28;20044;-43
2023/12/08 12:12:37;;;;;;;19.40;2.80;;;;;;;;;;5014244;28;20039;-43
2023/12/08 12:15:06;;;;;;;18.20;1.87;;;;;;;;;;4665204;28;10000443;-45
2023/12/08 12:17:36;;;;;;;19.08;1.92;;;;;;;;;;5020241;28;20064;-46
2023/12/08 12:20:04;;;;;;;15.98;2.53;;;;;;;;;;5014197;28;20522;-43
2023/12/08 12:22:32;;;;;;;15.15;2.50;;;;;;;;;;5016926;28;20045;-45
2023/12/08 12:25:00;;;;;;;18.02;2.33;;;;;;;;;;5009444;28;20399;-43
2023/12/08 12:27:27;;;;;;;14.30;2.73;;;;;;;;;;5011846;28;20041;-45
2023/12/08 12:29:56;;;;;;;15.35;2.92;;;;;;;;;;5014864;28;20041;-43
2023/12/08 12:32:26;;;;;;;17.40;2.35;;;;;;;;;;5044539;28;20188;-43
2023/12/08 12:34:55;;;;;;;15.05;2.22;;;;;;;;;;5021486;28;20057;-44
2023/12/08 12:37:25;;;;;;;28.02;3.13;;;;;;;;;;5014281;28;20049;-42
2023/12/08 12:39:53;;;;;;;17.10;2.23;;;;;;;;;;5027297;28;20044;-42
2023/12/08 12:42:21;;;;;;;21.50;2.08;;;;;;;;;;5021900;28;20052;-44
2023/12/08 12:44:49;;;;;;;14.30;1.52;;;;;;;;;;5026176;28;20052;-43
2023/12/08 12:47:21;;;;;;;19.65;2.25;;;;;;;;;;5013450;28;20048;-43
2023/12/08 12:50:03;;;;;;;23.77;2.38;;;;;;;;;;5023516;28;20040;-45
2023/12/08 12:52:32;;;;;;;14.70;2.20;;;;;;;;;;5018836;28;20409;-42
2023/12/08 12:55:00;;;;;;;15.48;1.80;;;;;;;;;;5022792;28;20056;-45
2023/12/08 12:57:40;;;;;;;19.13;2.28;;;;;;;;;;5030853;28;20033;-46
2023/12/08 13:00:10;;;;;;;19.23;1.95;;;;;;;;;;5020911;28;20679;-43
2023/12/08 13:02:38;;;;;;;20.63;2.70;;;;;;;;;;5025736;28;20041;-44
2023/12/08 13:05:09;;;;;;;21.10;1.93;;;;;;;;;;5015435;28;20052;-43
2023/12/08 13:07:38;;;;;;;22.63;2.65;;;;;;;;;;5018781;28;20636;-44
2023/12/08 13:10:06;;;;;;;16.10;2.40;;;;;;;;;;5019908;28;20467;-43
2023/12/08 13:12:34;;;;;;;18.85;2.50;;;;;;;;;;5016362;28;20388;-43
2023/12/08 13:15:02;;;;;;;23.00;2.80;;;;;;;;;;5029140;28;20053;-44
2023/12/08 13:17:34;;;;;;;18.40;2.13;;;;;;;;;;5020105;28;20033;-43
2023/12/08 13:20:02;;;;;;;12.20;1.65;;;;;;;;;;5025045;28;20072;-45
2023/12/08 13:22:31;;;;;;;16.10;1.73;;;;;;;;;;5018888;28;20037;-43
2023/12/08 13:25:01;;;;;;;10.18;1.30;;;;;;;;;;5020209;28;20068;-43
2023/12/08 13:27:28;;;;;;;14.40;1.60;;;;;;;;;;5020059;28;20028;-43
2023/12/08 13:29:57;;;;;;;21.13;1.90;;;;;;;;;;5019409;28;20415;-43
2023/12/08 13:32:24;;;;;;;17.02;1.52;;;;;;;;;;5026403;28;20037;-43
2023/12/08 13:34:53;;;;;;;10.68;1.52;;;;;;;;;;5025395;28;20659;-44
2023/12/08 13:37:21;;;;;;;16.23;2.30;;;;;;;;;;5017249;28;20041;-43
2023/12/08 13:39:50;;;;;;;18.15;2.80;;;;;;;;;;5025355;28;20525;-43
2023/12/08 13:42:22;;;;;;;22.97;2.37;;;;;;;;;;5017637;28;20037;-43
2023/12/08 13:44:50;;;;;;;20.10;2.20;;;;;;;;;;5031309;28;20036;-43
2023/12/08 13:47:18;;;;;;;24.27;2.65;;;;;;;;;;5011590;28;20041;-43
2023/12/08 13:49:48;;;;;;;14.27;2.58;;;;;;;;;;5031937;28;20052;-45
2023/12/08 13:52:16;;;;;;;21.52;2.20;;;;;;;;;;4999842;28;20037;-43
2023/12/08 13:54:43;;;;;;;19.73;2.13;;;;;;;;;;5035078;28;20753;-46
2023/12/08 13:57:13;;;;;;;15.77;2.63;;;;;;;;;;5021650;28;20045;-43
2023/12/08 13:59:41;;;;;;;20.30;2.58;;;;;;;;;;5016084;28;20581;-43
2023/12/08 14:02:09;;;;;;;16.08;2.35;;;;;;;;;;5030255;28;20112;-43
2023/12/08 14:04:39;;;;;;;17.48;2.50;;;;;;;;;;5026540;28;20045;-44
2023/12/08 14:07:07;;;;;;;17.60;2.37;;;;;;;;;;5029385;28;20049;-44
2023/12/08 14:09:35;;;;;;;18.27;2.38;;;;;;;;;;5017754;28;20052;-43
2023/12/08 14:12:08;;;;;;;11.88;2.40;;;;;;;;;;5027899;28;20044;-43
2023/12/08 14:14:38;;;;;;;15.35;2.35;;;;;;;;;;5021425;28;20060;-44
2023/12/08 14:17:06;;;;;;;20.75;2.78;;;;;;;;;;5017244;28;20491;-43
2023/12/08 14:19:33;;;;;;;20.20;2.47;;;;;;;;;;5016376;28;20055;-43
2023/12/08 14:22:02;;;;;;;19.65;3.00;;;;;;;;;;5011040;28;20507;-44
2023/12/08 14:24:30;;;;;;;22.77;3.60;;;;;;;;;;5011428;28;20415;-43
2023/12/08 14:26:57;;;;;;;13.70;2.42;;;;;;;;;;5020281;28;20141;-43
2023/12/08 14:29:26;;;;;;;15.63;2.03;;;;;;;;;;5014819;28;20033;-42
2023/12/08 14:31:55;;;;;;;16.00;1.77;;;;;;;;;;5018902;28;20044;-44
2023/12/08 14:34:22;;;;;;;12.73;2.58;;;;;;;;;;5039781;28;20064;-43
2023/12/08 14:36:51;;;;;;;17.50;2.92;;;;;;;;;;5012021;28;20052;-42